Terminal Aerodrome Forecast
Issued by NWS Wilmington, NC

Home | Current Version | Previous Version | Text Only | Print | Product List | Glossary On
Versions: 1 2 3 4 5 6 7 8 9 10 11 12
923
FTUS42 KILM 252337
TAFMYR
TAF
KMYR 252337Z 2600/2624 20012KT P6SM SKC
     FM260200 22006KT P6SM FEW250
     FM261800 17012KT P6SM SKC=

USA.gov is the U.S. government's official web portal to all federal, state and local government web resources and services.